sensor_id;sensor_type;location;lat;lon;timestamp;P1;durP1;ratioP1;P2;durP2;ratioP2
69744;SDS011;57015;50.120;-5.168;2023-01-25T00:01:29;18.13;;;7.27;;
69744;SDS011;57015;50.120;-5.168;2023-01-25T00:03:54;14.98;;;6.70;;
69744;SDS011;57015;50.120;-5.168;2023-01-25T00:06:20;15.83;;;6.87;;
69744;SDS011;57015;50.120;-5.168;2023-01-25T00:08:49;16.07;;;7.17;;
69744;SDS011;57015;50.120;-5.168;2023-01-25T00:11:15;17.35;;;7.80;;
69744;SDS011;57015;50.120;-5.168;2023-01-25T00:13:44;16.37;;;6.77;;
69744;SDS011;57015;50.120;-5.168;2023-01-25T00:16:09;16.17;;;7.32;;
69744;SDS011;57015;50.120;-5.168;2023-01-25T00:18:35;17.97;;;7.80;;
69744;SDS011;57015;50.120;-5.168;2023-01-25T00:21:10;18.93;;;7.80;;
69744;SDS011;57015;50.120;-5.168;2023-01-25T00:23:39;19.88;;;9.35;;
69744;SDS011;57015;50.120;-5.168;2023-01-25T00:26:04;20.73;;;10.57;;
69744;SDS011;57015;50.120;-5.168;2023-01-25T00:28:30;20.97;;;10.70;;
69744;SDS011;57015;50.120;-5.168;2023-01-25T00:30:59;21.13;;;11.13;;
69744;SDS011;57015;50.120;-5.168;2023-01-25T00:33:39;19.77;;;9.88;;
69744;SDS011;57015;50.120;-5.168;2023-01-25T00:38:58;18.63;;;7.78;;
69744;SDS011;57015;50.120;-5.168;2023-01-25T00:41:24;20.73;;;9.10;;
69744;SDS011;57015;50.120;-5.168;2023-01-25T00:43:49;19.50;;;7.77;;
69744;SDS011;57015;50.120;-5.168;2023-01-25T00:46:15;17.33;;;8.35;;
69744;SDS011;57015;50.120;-5.168;2023-01-25T00:48:41;17.23;;;7.90;;
69744;SDS011;57015;50.120;-5.168;2023-01-25T00:51:06;17.83;;;7.63;;
69744;SDS011;57015;50.120;-5.168;2023-01-25T00:53:32;17.37;;;7.87;;
69744;SDS011;57015;50.120;-5.168;2023-01-25T00:55:57;20.40;;;8.67;;
69744;SDS011;57015;50.120;-5.168;2023-01-25T00:58:23;18.67;;;8.38;;
69744;SDS011;57015;50.120;-5.168;2023-01-25T01:00:48;20.33;;;8.67;;
69744;SDS011;57015;50.120;-5.168;2023-01-25T01:03:14;21.73;;;9.17;;
69744;SDS011;57015;50.120;-5.168;2023-01-25T01:05:40;17.65;;;7.93;;
69744;SDS011;57015;50.120;-5.168;2023-01-25T01:08:05;18.00;;;7.23;;
69744;SDS011;57015;50.120;-5.168;2023-01-25T01:10:30;19.00;;;7.77;;
69744;SDS011;57015;50.120;-5.168;2023-01-25T01:12:56;20.63;;;8.53;;
69744;SDS011;57015;50.120;-5.168;2023-01-25T01:15:21;17.03;;;7.03;;
69744;SDS011;57015;50.120;-5.168;2023-01-25T01:17:46;17.17;;;8.00;;
69744;SDS011;57015;50.120;-5.168;2023-01-25T01:20:12;19.23;;;7.60;;
69744;SDS011;57015;50.120;-5.168;2023-01-25T01:22:37;17.90;;;7.70;;
69744;SDS011;57015;50.120;-5.168;2023-01-25T01:25:03;17.13;;;7.47;;
69744;SDS011;57015;50.120;-5.168;2023-01-25T01:27:29;17.77;;;7.30;;
69744;SDS011;57015;50.120;-5.168;2023-01-25T01:29:54;18.17;;;7.37;;
69744;SDS011;57015;50.120;-5.168;2023-01-25T01:32:19;19.08;;;7.10;;
69744;SDS011;57015;50.120;-5.168;2023-01-25T01:34:45;18.57;;;7.87;;
69744;SDS011;57015;50.120;-5.168;2023-01-25T01:37:10;17.73;;;8.17;;
69744;SDS011;57015;50.120;-5.168;2023-01-25T01:39:36;16.73;;;7.50;;
69744;SDS011;57015;50.120;-5.168;2023-01-25T01:42:02;19.93;;;8.90;;
69744;SDS011;57015;50.120;-5.168;2023-01-25T01:44:44;18.57;;;7.70;;
69744;SDS011;57015;50.120;-5.168;2023-01-25T01:47:13;17.20;;;7.47;;
69744;SDS011;57015;50.120;-5.168;2023-01-25T01:49:42;18.25;;;7.78;;
69744;SDS011;57015;50.120;-5.168;2023-01-25T01:52:10;20.23;;;7.07;;
69744;SDS011;57015;50.120;-5.168;2023-01-25T01:55:11;15.50;;;6.25;;
69744;SDS011;57015;50.120;-5.168;2023-01-25T01:57:37;15.88;;;7.85;;
69744;SDS011;57015;50.120;-5.168;2023-01-25T02:00:10;19.27;;;7.60;;
69744;SDS011;57015;50.120;-5.168;2023-01-25T02:02:39;16.98;;;6.82;;
69744;SDS011;57015;50.120;-5.168;2023-01-25T02:05:05;19.50;;;6.67;;
69744;SDS011;57015;50.120;-5.168;2023-01-25T02:07:36;17.77;;;7.68;;
69744;SDS011;57015;50.120;-5.168;2023-01-25T02:10:03;20.00;;;8.00;;
69744;SDS011;57015;50.120;-5.168;2023-01-25T02:12:30;18.98;;;7.85;;
69744;SDS011;57015;50.120;-5.168;2023-01-25T02:14:56;19.80;;;6.77;;
69744;SDS011;57015;50.120;-5.168;2023-01-25T02:17:24;16.03;;;6.87;;
69744;SDS011;57015;50.120;-5.168;2023-01-25T02:22:35;17.20;;;8.15;;
69744;SDS011;57015;50.120;-5.168;2023-01-25T02:25:26;18.98;;;7.63;;
69744;SDS011;57015;50.120;-5.168;2023-01-25T02:28:14;18.83;;;7.78;;
69744;SDS011;57015;50.120;-5.168;2023-01-25T02:30:47;19.37;;;7.00;;
69744;SDS011;57015;50.120;-5.168;2023-01-25T02:33:13;19.17;;;8.25;;
69744;SDS011;57015;50.120;-5.168;2023-01-25T02:35:45;16.13;;;7.17;;
69744;SDS011;57015;50.120;-5.168;2023-01-25T02:38:13;18.08;;;7.93;;
69744;SDS011;57015;50.120;-5.168;2023-01-25T02:43:30;22.93;;;8.00;;
69744;SDS011;57015;50.120;-5.168;2023-01-25T02:45:58;20.42;;;8.38;;
69744;SDS011;57015;50.120;-5.168;2023-01-25T02:48:25;19.08;;;7.45;;
69744;SDS011;57015;50.120;-5.168;2023-01-25T02:50:50;18.53;;;7.90;;
69744;SDS011;57015;50.120;-5.168;2023-01-25T02:53:16;17.93;;;7.27;;
69744;SDS011;57015;50.120;-5.168;2023-01-25T02:55:41;19.88;;;8.02;;
69744;SDS011;57015;50.120;-5.168;2023-01-25T02:58:06;17.25;;;7.72;;
69744;SDS011;57015;50.120;-5.168;2023-01-25T03:00:32;20.50;;;7.63;;
69744;SDS011;57015;50.120;-5.168;2023-01-25T03:02:57;20.37;;;8.20;;
69744;SDS011;57015;50.120;-5.168;2023-01-25T03:05:23;20.67;;;8.57;;
69744;SDS011;57015;50.120;-5.168;2023-01-25T03:07:48;21.13;;;8.45;;
69744;SDS011;57015;50.120;-5.168;2023-01-25T03:10:14;28.93;;;8.70;;
69744;SDS011;57015;50.120;-5.168;2023-01-25T03:12:39;20.73;;;8.80;;
69744;SDS011;57015;50.120;-5.168;2023-01-25T03:15:05;22.43;;;9.33;;
69744;SDS011;57015;50.120;-5.168;2023-01-25T03:17:31;21.58;;;8.15;;
69744;SDS011;57015;50.120;-5.168;2023-01-25T03:19:56;20.47;;;8.30;;
69744;SDS011;57015;50.120;-5.168;2023-01-25T03:22:22;19.37;;;7.57;;
69744;SDS011;57015;50.120;-5.168;2023-01-25T03:24:47;20.97;;;7.83;;
69744;SDS011;57015;50.120;-5.168;2023-01-25T03:27:12;19.03;;;7.63;;
69744;SDS011;57015;50.120;-5.168;2023-01-25T03:29:38;20.15;;;8.25;;
69744;SDS011;57015;50.120;-5.168;2023-01-25T03:32:05;17.03;;;7.70;;
69744;SDS011;57015;50.120;-5.168;2023-01-25T03:34:30;20.02;;;8.10;;
69744;SDS011;57015;50.120;-5.168;2023-01-25T03:36:56;16.50;;;7.40;;
69744;SDS011;57015;50.120;-5.168;2023-01-25T03:39:21;20.67;;;8.90;;
69744;SDS011;57015;50.120;-5.168;2023-01-25T03:41:47;19.83;;;7.57;;
69744;SDS011;57015;50.120;-5.168;2023-01-25T03:44:12;21.43;;;8.13;;
69744;SDS011;57015;50.120;-5.168;2023-01-25T03:46:38;21.73;;;7.90;;
69744;SDS011;57015;50.120;-5.168;2023-01-25T03:49:04;23.25;;;8.05;;
69744;SDS011;57015;50.120;-5.168;2023-01-25T03:51:30;20.20;;;8.07;;
69744;SDS011;57015;50.120;-5.168;2023-01-25T03:53:55;16.25;;;6.80;;
69744;SDS011;57015;50.120;-5.168;2023-01-25T03:56:21;17.33;;;7.17;;
69744;SDS011;57015;50.120;-5.168;2023-01-25T03:58:46;18.73;;;8.10;;
69744;SDS011;57015;50.120;-5.168;2023-01-25T04:01:11;19.73;;;7.23;;
69744;SDS011;57015;50.120;-5.168;2023-01-25T04:03:37;18.57;;;8.33;;
69744;SDS011;57015;50.120;-5.168;2023-01-25T04:06:03;18.33;;;7.70;;
69744;SDS011;57015;50.120;-5.168;2023-01-25T04:08:29;20.80;;;7.72;;
69744;SDS011;57015;50.120;-5.168;2023-01-25T04:10:56;20.98;;;8.30;;
69744;SDS011;57015;50.120;-5.168;2023-01-25T04:13:25;18.05;;;6.93;;
69744;SDS011;57015;50.120;-5.168;2023-01-25T04:15:51;21.50;;;7.53;;
69744;SDS011;57015;50.120;-5.168;2023-01-25T04:18:16;19.58;;;7.57;;
69744;SDS011;57015;50.120;-5.168;2023-01-25T04:20:42;17.87;;;7.20;;
69744;SDS011;57015;50.120;-5.168;2023-01-25T04:23:08;18.08;;;6.97;;
69744;SDS011;57015;50.120;-5.168;2023-01-25T04:25:34;15.87;;;6.13;;
69744;SDS011;57015;50.120;-5.168;2023-01-25T04:28:00;22.17;;;7.65;;
69744;SDS011;57015;50.120;-5.168;2023-01-25T04:30:25;16.50;;;6.57;;
69744;SDS011;57015;50.120;-5.168;2023-01-25T04:32:50;20.23;;;7.03;;
69744;SDS011;57015;50.120;-5.168;2023-01-25T04:35:16;19.33;;;6.18;;
69744;SDS011;57015;50.120;-5.168;2023-01-25T04:37:41;17.30;;;7.00;;
69744;SDS011;57015;50.120;-5.168;2023-01-25T04:40:07;16.97;;;6.87;;
69744;SDS011;57015;50.120;-5.168;2023-01-25T04:42:33;14.93;;;5.95;;
69744;SDS011;57015;50.120;-5.168;2023-01-25T04:44:58;14.93;;;6.30;;
69744;SDS011;57015;50.120;-5.168;2023-01-25T04:47:24;17.93;;;7.13;;
69744;SDS011;57015;50.120;-5.168;2023-01-25T04:49:49;15.73;;;6.83;;
69744;SDS011;57015;50.120;-5.168;2023-01-25T04:52:14;15.87;;;6.00;;
69744;SDS011;57015;50.120;-5.168;2023-01-25T04:54:40;15.77;;;6.20;;
69744;SDS011;57015;50.120;-5.168;2023-01-25T04:57:05;16.67;;;6.38;;
69744;SDS011;57015;50.120;-5.168;2023-01-25T04:59:30;17.92;;;6.43;;
69744;SDS011;57015;50.120;-5.168;2023-01-25T05:01:56;14.90;;;6.17;;
69744;SDS011;57015;50.120;-5.168;2023-01-25T05:04:21;15.30;;;5.57;;
69744;SDS011;57015;50.120;-5.168;2023-01-25T05:06:47;16.87;;;6.00;;
69744;SDS011;57015;50.120;-5.168;2023-01-25T05:09:12;17.20;;;6.30;;
69744;SDS011;57015;50.120;-5.168;2023-01-25T05:11:37;15.77;;;5.70;;
69744;SDS011;57015;50.120;-5.168;2023-01-25T05:14:03;16.33;;;6.27;;
69744;SDS011;57015;50.120;-5.168;2023-01-25T05:16:28;12.27;;;5.10;;
69744;SDS011;57015;50.120;-5.168;2023-01-25T05:18:54;11.77;;;5.40;;
69744;SDS011;57015;50.120;-5.168;2023-01-25T05:21:20;15.02;;;5.75;;
69744;SDS011;57015;50.120;-5.168;2023-01-25T05:24:04;14.10;;;5.90;;
69744;SDS011;57015;50.120;-5.168;2023-01-25T05:26:30;13.10;;;5.20;;
69744;SDS011;57015;50.120;-5.168;2023-01-25T05:29:14;18.08;;;6.55;;
69744;SDS011;57015;50.120;-5.168;2023-01-25T05:31:39;15.80;;;5.67;;
69744;SDS011;57015;50.120;-5.168;2023-01-25T05:34:04;14.00;;;5.90;;
69744;SDS011;57015;50.120;-5.168;2023-01-25T05:36:30;14.07;;;5.60;;
69744;SDS011;57015;50.120;-5.168;2023-01-25T05:38:55;15.07;;;5.77;;
69744;SDS011;57015;50.120;-5.168;2023-01-25T05:41:20;14.97;;;5.97;;
69744;SDS011;57015;50.120;-5.168;2023-01-25T05:43:47;13.27;;;4.93;;
69744;SDS011;57015;50.120;-5.168;2023-01-25T05:46:13;13.80;;;5.10;;
69744;SDS011;57015;50.120;-5.168;2023-01-25T05:48:38;13.57;;;5.23;;
69744;SDS011;57015;50.120;-5.168;2023-01-25T05:51:04;11.48;;;5.15;;
69744;SDS011;57015;50.120;-5.168;2023-01-25T05:53:30;14.23;;;5.83;;
69744;SDS011;57015;50.120;-5.168;2023-01-25T05:55:55;13.48;;;5.35;;
69744;SDS011;57015;50.120;-5.168;2023-01-25T05:58:20;14.13;;;5.32;;
69744;SDS011;57015;50.120;-5.168;2023-01-25T06:00:46;16.80;;;5.93;;
69744;SDS011;57015;50.120;-5.168;2023-01-25T06:03:11;13.57;;;5.70;;
69744;SDS011;57015;50.120;-5.168;2023-01-25T06:05:36;14.30;;;5.97;;
69744;SDS011;57015;50.120;-5.168;2023-01-25T06:08:02;13.87;;;5.27;;
69744;SDS011;57015;50.120;-5.168;2023-01-25T06:10:27;15.13;;;5.80;;
69744;SDS011;57015;50.120;-5.168;2023-01-25T06:12:59;12.93;;;5.20;;
69744;SDS011;57015;50.120;-5.168;2023-01-25T06:15:25;11.18;;;4.72;;
69744;SDS011;57015;50.120;-5.168;2023-01-25T06:17:56;14.55;;;5.60;;
69744;SDS011;57015;50.120;-5.168;2023-01-25T06:20:22;13.95;;;5.57;;
69744;SDS011;57015;50.120;-5.168;2023-01-25T06:22:50;14.73;;;5.60;;
69744;SDS011;57015;50.120;-5.168;2023-01-25T06:25:16;13.65;;;5.53;;
69744;SDS011;57015;50.120;-5.168;2023-01-25T06:27:42;13.13;;;4.90;;
69744;SDS011;57015;50.120;-5.168;2023-01-25T06:30:07;12.20;;;5.03;;
69744;SDS011;57015;50.120;-5.168;2023-01-25T06:32:33;15.83;;;5.17;;
69744;SDS011;57015;50.120;-5.168;2023-01-25T06:34:59;13.77;;;5.50;;
69744;SDS011;57015;50.120;-5.168;2023-01-25T06:37:24;16.35;;;5.65;;
69744;SDS011;57015;50.120;-5.168;2023-01-25T06:39:49;11.73;;;4.97;;
69744;SDS011;57015;50.120;-5.168;2023-01-25T06:42:15;10.03;;;3.83;;
69744;SDS011;57015;50.120;-5.168;2023-01-25T06:44:40;11.40;;;5.17;;
69744;SDS011;57015;50.120;-5.168;2023-01-25T06:47:09;13.73;;;5.07;;
69744;SDS011;57015;50.120;-5.168;2023-01-25T06:49:35;14.60;;;4.97;;
69744;SDS011;57015;50.120;-5.168;2023-01-25T06:52:01;12.73;;;4.72;;
69744;SDS011;57015;50.120;-5.168;2023-01-25T06:54:26;15.50;;;5.20;;
69744;SDS011;57015;50.120;-5.168;2023-01-25T06:56:52;15.18;;;5.35;;
69744;SDS011;57015;50.120;-5.168;2023-01-25T06:59:17;13.83;;;5.57;;
69744;SDS011;57015;50.120;-5.168;2023-01-25T07:01:42;12.80;;;5.23;;
69744;SDS011;57015;50.120;-5.168;2023-01-25T07:04:08;13.30;;;4.67;;
69744;SDS011;57015;50.120;-5.168;2023-01-25T07:06:35;14.00;;;5.00;;
69744;SDS011;57015;50.120;-5.168;2023-01-25T07:09:01;12.97;;;4.67;;
69744;SDS011;57015;50.120;-5.168;2023-01-25T07:11:31;12.27;;;4.97;;
69744;SDS011;57015;50.120;-5.168;2023-01-25T07:13:56;12.20;;;4.47;;
69744;SDS011;57015;50.120;-5.168;2023-01-25T07:16:22;13.67;;;4.97;;
69744;SDS011;57015;50.120;-5.168;2023-01-25T07:18:47;11.93;;;5.10;;
69744;SDS011;57015;50.120;-5.168;2023-01-25T07:23:38;9.88;;;4.65;;
69744;SDS011;57015;50.120;-5.168;2023-01-25T07:26:04;12.83;;;4.67;;
69744;SDS011;57015;50.120;-5.168;2023-01-25T07:28:30;12.98;;;4.15;;
69744;SDS011;57015;50.120;-5.168;2023-01-25T07:31:02;12.85;;;4.45;;
69744;SDS011;57015;50.120;-5.168;2023-01-25T07:33:28;12.83;;;4.50;;
69744;SDS011;57015;50.120;-5.168;2023-01-25T07:35:53;11.80;;;5.03;;
69744;SDS011;57015;50.120;-5.168;2023-01-25T07:38:18;11.90;;;4.55;;
69744;SDS011;57015;50.120;-5.168;2023-01-25T07:40:49;12.40;;;3.90;;
69744;SDS011;57015;50.120;-5.168;2023-01-25T07:43:16;13.80;;;4.63;;
69744;SDS011;57015;50.120;-5.168;2023-01-25T07:45:41;10.18;;;4.68;;
69744;SDS011;57015;50.120;-5.168;2023-01-25T07:48:09;12.47;;;4.80;;
69744;SDS011;57015;50.120;-5.168;2023-01-25T07:50:34;12.57;;;4.45;;
69744;SDS011;57015;50.120;-5.168;2023-01-25T07:53:00;13.17;;;4.80;;
69744;SDS011;57015;50.120;-5.168;2023-01-25T07:55:25;13.20;;;5.07;;
69744;SDS011;57015;50.120;-5.168;2023-01-25T07:57:54;14.27;;;4.17;;
69744;SDS011;57015;50.120;-5.168;2023-01-25T08:00:19;11.43;;;4.53;;
69744;SDS011;57015;50.120;-5.168;2023-01-25T08:02:48;11.17;;;4.83;;
69744;SDS011;57015;50.120;-5.168;2023-01-25T08:05:14;11.02;;;4.60;;
69744;SDS011;57015;50.120;-5.168;2023-01-25T08:07:39;12.40;;;4.50;;
69744;SDS011;57015;50.120;-5.168;2023-01-25T08:10:05;11.33;;;4.60;;
69744;SDS011;57015;50.120;-5.168;2023-01-25T08:12:31;11.20;;;4.68;;
69744;SDS011;57015;50.120;-5.168;2023-01-25T08:14:58;13.38;;;4.60;;
69744;SDS011;57015;50.120;-5.168;2023-01-25T08:17:24;12.50;;;4.25;;
69744;SDS011;57015;50.120;-5.168;2023-01-25T08:19:55;10.37;;;4.20;;
69744;SDS011;57015;50.120;-5.168;2023-01-25T08:22:24;12.50;;;4.38;;
69744;SDS011;57015;50.120;-5.168;2023-01-25T08:24:50;11.10;;;3.83;;
69744;SDS011;57015;50.120;-5.168;2023-01-25T08:27:15;10.53;;;4.63;;
69744;SDS011;57015;50.120;-5.168;2023-01-25T08:29:41;9.03;;;3.97;;
69744;SDS011;57015;50.120;-5.168;2023-01-25T08:32:06;11.20;;;4.40;;
69744;SDS011;57015;50.120;-5.168;2023-01-25T08:34:32;12.20;;;4.18;;
69744;SDS011;57015;50.120;-5.168;2023-01-25T08:36:58;10.90;;;4.95;;
69744;SDS011;57015;50.120;-5.168;2023-01-25T08:39:24;10.67;;;4.23;;
69744;SDS011;57015;50.120;-5.168;2023-01-25T08:41:49;10.60;;;4.50;;
69744;SDS011;57015;50.120;-5.168;2023-01-25T08:44:14;10.55;;;3.90;;
69744;SDS011;57015;50.120;-5.168;2023-01-25T08:46:40;14.23;;;5.13;;
69744;SDS011;57015;50.120;-5.168;2023-01-25T08:49:05;11.77;;;5.07;;
69744;SDS011;57015;50.120;-5.168;2023-01-25T08:51:31;11.37;;;4.20;;
69744;SDS011;57015;50.120;-5.168;2023-01-25T08:54:06;12.15;;;4.75;;
69744;SDS011;57015;50.120;-5.168;2023-01-25T08:56:35;11.60;;;4.53;;
69744;SDS011;57015;50.120;-5.168;2023-01-25T08:59:01;11.10;;;4.50;;
69744;SDS011;57015;50.120;-5.168;2023-01-25T09:01:27;13.60;;;4.67;;
69744;SDS011;57015;50.120;-5.168;2023-01-25T09:03:52;12.93;;;4.37;;
69744;SDS011;57015;50.120;-5.168;2023-01-25T09:06:18;15.00;;;4.45;;
69744;SDS011;57015;50.120;-5.168;2023-01-25T09:08:44;12.53;;;4.27;;
69744;SDS011;57015;50.120;-5.168;2023-01-25T09:11:13;12.63;;;4.83;;
69744;SDS011;57015;50.120;-5.168;2023-01-25T09:13:40;10.35;;;4.00;;
69744;SDS011;57015;50.120;-5.168;2023-01-25T09:16:09;11.75;;;4.60;;
69744;SDS011;57015;50.120;-5.168;2023-01-25T09:18:37;14.05;;;4.78;;
69744;SDS011;57015;50.120;-5.168;2023-01-25T09:21:07;10.75;;;3.90;;
69744;SDS011;57015;50.120;-5.168;2023-01-25T09:23:33;15.27;;;4.93;;
69744;SDS011;57015;50.120;-5.168;2023-01-25T09:25:59;10.07;;;3.72;;
69744;SDS011;57015;50.120;-5.168;2023-01-25T09:28:25;12.30;;;4.53;;
69744;SDS011;57015;50.120;-5.168;2023-01-25T09:30:56;11.40;;;4.90;;
69744;SDS011;57015;50.120;-5.168;2023-01-25T09:33:30;10.70;;;4.55;;
69744;SDS011;57015;50.120;-5.168;2023-01-25T09:35:57;12.82;;;4.45;;
69744;SDS011;57015;50.120;-5.168;2023-01-25T09:38:23;14.77;;;3.97;;
69744;SDS011;57015;50.120;-5.168;2023-01-25T09:49:24;10.98;;;4.45;;
69744;SDS011;57015;50.120;-5.168;2023-01-25T09:52:15;12.30;;;4.37;;
69744;SDS011;57015;50.120;-5.168;2023-01-25T09:55:07;11.90;;;4.50;;
69744;SDS011;57015;50.120;-5.168;2023-01-25T09:57:37;15.52;;;4.50;;
69744;SDS011;57015;50.120;-5.168;2023-01-25T10:00:23;12.55;;;4.57;;
69744;SDS011;57015;50.120;-5.168;2023-01-25T10:06:11;15.40;;;5.05;;
69744;SDS011;57015;50.120;-5.168;2023-01-25T10:08:41;13.82;;;4.95;;
69744;SDS011;57015;50.120;-5.168;2023-01-25T10:11:15;13.65;;;6.00;;
69744;SDS011;57015;50.120;-5.168;2023-01-25T10:13:45;15.85;;;5.47;;
69744;SDS011;57015;50.120;-5.168;2023-01-25T10:16:12;14.73;;;5.27;;
69744;SDS011;57015;50.120;-5.168;2023-01-25T10:18:48;15.07;;;5.80;;
69744;SDS011;57015;50.120;-5.168;2023-01-25T10:21:41;18.73;;;7.07;;
69744;SDS011;57015;50.120;-5.168;2023-01-25T10:26:47;15.70;;;5.63;;
69744;SDS011;57015;50.120;-5.168;2023-01-25T10:29:18;18.48;;;6.20;;
69744;SDS011;57015;50.120;-5.168;2023-01-25T10:31:48;15.73;;;5.85;;
69744;SDS011;57015;50.120;-5.168;2023-01-25T10:36:55;13.95;;;5.00;;
69744;SDS011;57015;50.120;-5.168;2023-01-25T10:39:22;15.50;;;5.90;;
69744;SDS011;57015;50.120;-5.168;2023-01-25T10:41:49;12.77;;;5.18;;
69744;SDS011;57015;50.120;-5.168;2023-01-25T10:44:20;15.30;;;5.77;;
69744;SDS011;57015;50.120;-5.168;2023-01-25T10:46:54;17.55;;;5.68;;
69744;SDS011;57015;50.120;-5.168;2023-01-25T10:49:23;15.97;;;5.93;;
69744;SDS011;57015;50.120;-5.168;2023-01-25T10:51:52;17.48;;;6.35;;
69744;SDS011;57015;50.120;-5.168;2023-01-25T10:54:18;16.27;;;5.73;;
69744;SDS011;57015;50.120;-5.168;2023-01-25T10:56:46;15.18;;;5.90;;
69744;SDS011;57015;50.120;-5.168;2023-01-25T10:59:16;19.92;;;6.63;;
69744;SDS011;57015;50.120;-5.168;2023-01-25T11:01:47;13.23;;;5.63;;
69744;SDS011;57015;50.120;-5.168;2023-01-25T11:06:49;19.70;;;7.40;;
69744;SDS011;57015;50.120;-5.168;2023-01-25T11:11:56;20.10;;;8.15;;
69744;SDS011;57015;50.120;-5.168;2023-01-25T11:14:24;18.83;;;7.40;;
69744;SDS011;57015;50.120;-5.168;2023-01-25T11:16:51;18.77;;;6.80;;
69744;SDS011;57015;50.120;-5.168;2023-01-25T11:21:55;18.67;;;7.18;;
69744;SDS011;57015;50.120;-5.168;2023-01-25T11:24:29;17.98;;;7.57;;
69744;SDS011;57015;50.120;-5.168;2023-01-25T11:29:45;21.67;;;7.90;;
69744;SDS011;57015;50.120;-5.168;2023-01-25T11:32:31;23.90;;;9.13;;
69744;SDS011;57015;50.120;-5.168;2023-01-25T11:34:57;23.83;;;9.52;;
69744;SDS011;57015;50.120;-5.168;2023-01-25T11:40:40;25.73;;;9.57;;
69744;SDS011;57015;50.120;-5.168;2023-01-25T11:46:13;27.63;;;9.68;;
69744;SDS011;57015;50.120;-5.168;2023-01-25T12:00:35;30.73;;;10.70;;
69744;SDS011;57015;50.120;-5.168;2023-01-25T12:08:40;33.15;;;11.20;;
69744;SDS011;57015;50.120;-5.168;2023-01-25T12:17:19;28.93;;;10.57;;
69744;SDS011;57015;50.120;-5.168;2023-01-25T12:20:07;26.48;;;9.45;;
69744;SDS011;57015;50.120;-5.168;2023-01-25T12:28:18;17.80;;;6.35;;
69744;SDS011;57015;50.120;-5.168;2023-01-25T12:35:58;11.80;;;5.50;;
69744;SDS011;57015;50.120;-5.168;2023-01-25T12:38:26;17.63;;;5.43;;
69744;SDS011;57015;50.120;-5.168;2023-01-25T12:41:49;13.85;;;6.05;;
69744;SDS011;57015;50.120;-5.168;2023-01-25T12:44:17;14.88;;;5.32;;
69744;SDS011;57015;50.120;-5.168;2023-01-25T12:46:53;13.30;;;5.43;;
69744;SDS011;57015;50.120;-5.168;2023-01-25T12:49:30;11.87;;;5.37;;
69744;SDS011;57015;50.120;-5.168;2023-01-25T12:52:00;13.85;;;7.18;;
69744;SDS011;57015;50.120;-5.168;2023-01-25T12:54:33;13.15;;;5.80;;
69744;SDS011;57015;50.120;-5.168;2023-01-25T13:02:51;7.17;;;3.17;;
69744;SDS011;57015;50.120;-5.168;2023-01-25T13:05:46;6.57;;;2.00;;
69744;SDS011;57015;50.120;-5.168;2023-01-25T13:11:09;3.40;;;1.33;;
69744;SDS011;57015;50.120;-5.168;2023-01-25T13:13:43;4.63;;;1.40;;
69744;SDS011;57015;50.120;-5.168;2023-01-25T13:16:24;4.33;;;1.70;;
69744;SDS011;57015;50.120;-5.168;2023-01-25T13:18:57;4.03;;;1.70;;
69744;SDS011;57015;50.120;-5.168;2023-01-25T13:24:11;4.47;;;1.55;;
69744;SDS011;57015;50.120;-5.168;2023-01-25T13:26:38;6.10;;;1.30;;
69744;SDS011;57015;50.120;-5.168;2023-01-25T13:31:54;4.15;;;0.98;;
69744;SDS011;57015;50.120;-5.168;2023-01-25T13:37:12;6.45;;;1.50;;
69744;SDS011;57015;50.120;-5.168;2023-01-25T13:39:41;3.73;;;1.07;;
69744;SDS011;57015;50.120;-5.168;2023-01-25T13:44:34;3.97;;;1.10;;
69744;SDS011;57015;50.120;-5.168;2023-01-25T13:47:02;3.45;;;1.00;;
69744;SDS011;57015;50.120;-5.168;2023-01-25T13:52:33;3.88;;;0.88;;
69744;SDS011;57015;50.120;-5.168;2023-01-25T13:54:59;2.80;;;0.90;;
69744;SDS011;57015;50.120;-5.168;2023-01-25T13:57:29;2.45;;;0.60;;
69744;SDS011;57015;50.120;-5.168;2023-01-25T14:02:31;2.33;;;0.80;;
69744;SDS011;57015;50.120;-5.168;2023-01-25T14:04:58;4.37;;;0.97;;
69744;SDS011;57015;50.120;-5.168;2023-01-25T14:07:29;3.22;;;0.52;;
69744;SDS011;57015;50.120;-5.168;2023-01-25T14:09:58;1.63;;;0.55;;
69744;SDS011;57015;50.120;-5.168;2023-01-25T14:12:30;2.53;;;0.37;;
69744;SDS011;57015;50.120;-5.168;2023-01-25T14:15:37;3.95;;;1.00;;
69744;SDS011;57015;50.120;-5.168;2023-01-25T14:18:10;2.63;;;0.45;;
69744;SDS011;57015;50.120;-5.168;2023-01-25T14:20:36;1.90;;;0.40;;
69744;SDS011;57015;50.120;-5.168;2023-01-25T14:23:02;3.30;;;0.80;;
69744;SDS011;57015;50.120;-5.168;2023-01-25T14:25:30;3.88;;;0.75;;
69744;SDS011;57015;50.120;-5.168;2023-01-25T14:27:59;4.57;;;0.82;;
69744;SDS011;57015;50.120;-5.168;2023-01-25T14:30:27;2.72;;;0.70;;
69744;SDS011;57015;50.120;-5.168;2023-01-25T14:32:55;2.92;;;0.95;;
69744;SDS011;57015;50.120;-5.168;2023-01-25T14:35:40;4.40;;;0.83;;
69744;SDS011;57015;50.120;-5.168;2023-01-25T14:40:54;4.45;;;1.88;;
69744;SDS011;57015;50.120;-5.168;2023-01-25T14:43:22;4.28;;;1.23;;
69744;SDS011;57015;50.120;-5.168;2023-01-25T14:45:48;6.30;;;1.30;;
69744;SDS011;57015;50.120;-5.168;2023-01-25T14:51:40;8.07;;;1.40;;
69744;SDS011;57015;50.120;-5.168;2023-01-25T14:54:00;5.20;;;1.33;;
69744;SDS011;57015;50.120;-5.168;2023-01-25T14:56:29;7.00;;;2.30;;
69744;SDS011;57015;50.120;-5.168;2023-01-25T14:58:57;7.07;;;1.98;;
69744;SDS011;57015;50.120;-5.168;2023-01-25T15:01:30;5.53;;;2.10;;
69744;SDS011;57015;50.120;-5.168;2023-01-25T15:03:59;5.30;;;1.50;;
69744;SDS011;57015;50.120;-5.168;2023-01-25T15:06:24;5.65;;;2.00;;
69744;SDS011;57015;50.120;-5.168;2023-01-25T15:08:49;5.47;;;2.10;;
69744;SDS011;57015;50.120;-5.168;2023-01-25T15:11:48;6.30;;;2.87;;
69744;SDS011;57015;50.120;-5.168;2023-01-25T15:14:15;7.07;;;2.25;;
69744;SDS011;57015;50.120;-5.168;2023-01-25T15:16:44;6.97;;;2.23;;
69744;SDS011;57015;50.120;-5.168;2023-01-25T15:19:20;10.82;;;3.53;;
69744;SDS011;57015;50.120;-5.168;2023-01-25T15:21:45;10.32;;;3.17;;
69744;SDS011;57015;50.120;-5.168;2023-01-25T15:24:12;7.07;;;2.20;;
69744;SDS011;57015;50.120;-5.168;2023-01-25T15:26:37;6.23;;;2.03;;
69744;SDS011;57015;50.120;-5.168;2023-01-25T15:29:13;6.77;;;1.50;;
69744;SDS011;57015;50.120;-5.168;2023-01-25T15:31:45;3.85;;;1.05;;
69744;SDS011;57015;50.120;-5.168;2023-01-25T15:34:18;1.90;;;0.43;;
69744;SDS011;57015;50.120;-5.168;2023-01-25T15:36:44;2.58;;;0.60;;
69744;SDS011;57015;50.120;-5.168;2023-01-25T15:39:14;2.00;;;0.30;;
69744;SDS011;57015;50.120;-5.168;2023-01-25T15:41:41;2.00;;;0.50;;
69744;SDS011;57015;50.120;-5.168;2023-01-25T15:44:07;1.52;;;0.30;;
69744;SDS011;57015;50.120;-5.168;2023-01-25T15:46:33;1.37;;;0.30;;
69744;SDS011;57015;50.120;-5.168;2023-01-25T15:48:59;1.38;;;0.30;;
69744;SDS011;57015;50.120;-5.168;2023-01-25T15:51:25;1.23;;;0.20;;
69744;SDS011;57015;50.120;-5.168;2023-01-25T15:53:50;1.65;;;0.30;;
69744;SDS011;57015;50.120;-5.168;2023-01-25T15:56:50;2.90;;;0.30;;
69744;SDS011;57015;50.120;-5.168;2023-01-25T15:59:12;1.10;;;0.20;;
69744;SDS011;57015;50.120;-5.168;2023-01-25T16:01:42;3.25;;;0.40;;
69744;SDS011;57015;50.120;-5.168;2023-01-25T16:04:09;2.50;;;0.60;;
69744;SDS011;57015;50.120;-5.168;2023-01-25T16:06:50;2.97;;;0.40;;
69744;SDS011;57015;50.120;-5.168;2023-01-25T16:09:18;3.83;;;0.90;;
69744;SDS011;57015;50.120;-5.168;2023-01-25T16:11:44;3.30;;;0.60;;
69744;SDS011;57015;50.120;-5.168;2023-01-25T16:14:11;3.80;;;0.80;;
69744;SDS011;57015;50.120;-5.168;2023-01-25T16:16:38;1.63;;;0.40;;
69744;SDS011;57015;50.120;-5.168;2023-01-25T16:19:05;2.70;;;0.40;;
69744;SDS011;57015;50.120;-5.168;2023-01-25T16:21:30;1.90;;;0.40;;